• Join FlightAware (Why Join?)
  • Login
  • US Flag GB Flag 
07:58 EDT


 

Airport Tracker/Info


-or-


 

Live Flight TrackerFlight Track Log ✈ N260GR ✈ 13-Mar-2014 ✈ KNJK - KNJK

Flight Track Log - Related Links

Times and Time Zones

All times are in EDT time to prevent confusion due to time zone crossing. See the N260GR flight status page for this flight to view local times or setup timezone preferences in your user account.

Time Position Orientation Groundspeed Altitude Reporting Facility
EDT Latitude Longitude Course Direction KTS MPH feet Rate Location/Type
13:54 32.8614 -115.7033 170° South 105 121 4,100  Level Los Angeles Center
13:55 32.8922 -115.7081 353° North 120 138 5,600 1,560 Climbing Los Angeles Center
13:56 32.9311 -115.7081 360° North 118 136 7,400 1,500 Climbing Los Angeles Center
13:57 32.9608 -115.7161 347° North 114 131 8,700 1,200 Climbing Los Angeles Center
13:58 32.9503 -115.7308 229° Southwest 103 119 9,900 1,140 Climbing Los Angeles Center
13:59 32.9508 -115.6986 89° East 110 127 11,100 1,080 Climbing Los Angeles Center
14:00 32.8266 -115.6686 170° South  Level Estimated
14:01 32.9706 -115.7114 331° Northwest 100 115 12,200  Level Los Angeles Center
14:02 32.9475 -115.7114 180° South 86 99 13,200 1,020 Climbing Los Angeles Center
14:03 32.9222 -115.7100 177° South 81 93 14,400 960 Climbing Los Angeles Center
14:04 32.9439 -115.7239 332° Northwest 88 101 15,200 660 Climbing Los Angeles Center
14:06 32.9375 -115.6983 107° East 69 79 16,600 660 Climbing Los Angeles Center
14:07 32.9442 -115.7181 292° West 66 76 17,300 600 Climbing Los Angeles Center
14:08 32.9703 -115.7378 328° Northwest 88 101 17,900 540 Climbing Los Angeles Center
14:09 32.9997 -115.7439 350° North 104 120 18,500 480 Climbing Los Angeles Center
14:10 32.9961 -115.7589 254° West 70 81 18,900 360 Climbing Los Angeles Center
14:11 32.9756 -115.7469 154° Southeast 78 90 19,300 420 Climbing Los Angeles Center
14:12 32.9564 -115.7253 137° Southeast 90 104 19,800 420 Climbing Los Angeles Center
14:13 32.9389 -115.7078 140° Southeast 87 100 20,200 420 Climbing Los Angeles Center
14:14 32.9172 -115.6914 148° Southeast 79 91 20,700 360 Climbing Los Angeles Center
14:15 32.9058 -115.7033 221° Southwest 66 76 21,000 240 Climbing Los Angeles Center
14:16 32.9142 -115.7264 293° West 73 84 21,200 180 Climbing Los Angeles Center
14:17 32.9372 -115.7461 324° Northwest 94 108 21,400 180 Climbing Los Angeles Center
14:18 32.9636 -115.7625 332° Northwest 105 121 21,600 240 Climbing Los Angeles Center
14:19 32.9956 -115.7792 336° Northwest 104 120 21,900 180 Climbing Los Angeles Center
14:20 33.0250 -115.7656 21° North 116 133 22,000 60 Climbing Los Angeles Center
14:21 33.0289 -115.7325 82° East 107 123 22,100 60 Climbing Los Angeles Center
14:22 33.0097 -115.7275 168° South 74 85 22,200 60 Climbing Los Angeles Center
14:23 32.9922 -115.7306 188° South 65 75 22,300 60 Climbing Los Angeles Center
14:24 32.9739 -115.7214 157° South 68 78 22,400 60 Climbing Los Angeles Center
14:25 32.9514 -115.7072 152° Southeast 76 87 22,500  Climbing Los Angeles Center
14:26 32.9333 -115.7081 182° South 69 79 22,500  Level Los Angeles Center
14:27 32.9261 -115.7294 248° West 72 83 22,600 60 Climbing Los Angeles Center
14:28 32.9558 -115.7369 348° North 105 121 22,700  Climbing Los Angeles Center
14:30 32.9658 -115.7067 69° East 106 122 22,700  Level Los Angeles Center
14:31 32.9506 -115.7128 199° South 72 83 22,700 60 Level Los Angeles Center
14:32 32.9342 -115.7286 219° Southwest 73 84 22,900 60 Climbing Los Angeles Center
14:33 32.9264 -115.7003 108° East 97 112 22,900  Level Los Angeles Center
14:34 32.9583 -115.6914 13° North 127 146 22,900  Level Los Angeles Center
14:35 32.9508 -115.7108 245° Southwest 100 115 22,900  Level Los Angeles Center
14:36 32.9286 -115.7106 179° South 85 98 23,000 -3,720 Climbing Los Angeles Center
14:37 32.9292 -115.7056 82° East 61 70 15,300 -6,600 Descending Los Angeles Center
14:38 32.9339 -115.6975 55° Northeast 38 44 9,300 -5,820 Descending Los Angeles Center
14:39 32.9361 -115.6978 354° North 23 26 3,200 -4,080 Descending Los Angeles Center
14:40 32.9569 -115.6914 14° North 77 89 900 -960 Descending Los Angeles Center
14:41 32.9367 -115.6786 152° Southeast 107 123 1,300 180 Climbing Los Angeles Center
14:42 32.9083 -115.6889 197° South 109 125 1,300  Level Los Angeles Center
14:43 32.8772 -115.7003 197° South 103 119 1,300  Level Los Angeles Center